Time;durP1;ratioP1;P1;durP2;ratioP2;P2;SDS_P1;SDS_P2;PMS_P1;PMS_P2;Temp;Humidity;BMP_temperature;BMP_pressure;BME280_temperature;BME280_humidity;BME280_pressure;Samples;Min_cycle;Max_cycle;Signal;HPM_P1;HPM_P2
2022/01/24 00:01:37;;;;;;;7.30;3.43;;;5.70;99.90;5.40;102313.00;;;;4978988;27;94144;-73
2022/01/24 00:04:04;;;;;;;9.10;4.20;;;5.60;99.90;5.40;102311.00;;;;5014211;27;92726;-73
2022/01/24 00:06:32;;;;;;;7.13;4.27;;;5.60;99.90;5.40;102317.00;;;;4979542;27;93201;-73
2022/01/24 00:09:01;;;;;;;5.03;3.90;;;5.60;99.90;5.40;102316.00;;;;4994573;27;93121;-72
2022/01/24 00:11:40;;;;;;;6.63;4.80;;;5.60;99.90;5.40;102314.00;;;;4995136;28;92799;-72
2022/01/24 00:17:10;;;;;;;6.33;4.00;;;5.60;99.90;5.30;102315.00;;;;4993763;28;92914;-73
2022/01/24 00:27:50;;;;;;;6.80;3.97;;;5.40;99.90;5.20;102313.00;;;;4977484;28;94067;-72
2022/01/24 00:30:17;;;;;;;7.27;4.40;;;5.40;99.90;5.30;102310.00;;;;4994275;28;100189;-72
2022/01/24 00:32:43;;;;;;;6.30;3.90;;;5.10;99.90;5.30;102306.00;;;;4976102;27;92874;-72
2022/01/24 00:35:10;;;;;;;8.23;4.07;;;5.40;99.90;5.30;102317.00;;;;4993718;27;109252;-72
2022/01/24 00:37:36;;;;;;;5.50;3.93;;;5.50;99.90;5.30;102319.00;;;;4993980;28;93983;-72
2022/01/24 00:40:02;;;;;;;6.80;4.13;;;5.50;99.90;5.30;102316.00;;;;4994440;28;93679;-71
2022/01/24 00:45:12;;;;;;;12.60;4.63;;;5.50;99.90;5.30;102314.00;;;;4991951;27;95837;-71
2022/01/24 00:53:18;;;;;;;6.27;4.33;;;5.50;99.90;5.30;102314.00;;;;4977308;28;94147;-71
2022/01/24 00:55:47;;;;;;;6.60;4.60;;;5.50;99.90;5.30;102311.00;;;;4976696;27;92740;-71
2022/01/24 00:58:13;;;;;;;5.23;3.90;;;5.40;99.90;5.30;102311.00;;;;4992919;28;107442;-70
2022/01/24 01:00:39;;;;;;;6.97;3.73;;;5.40;99.90;5.30;102308.00;;;;4995795;27;93692;-69
2022/01/24 01:03:05;;;;;;;7.60;4.23;;;5.40;99.90;5.30;102307.00;;;;5013735;27;92915;-70
2022/01/24 01:08:13;;;;;;;3.93;3.07;;;5.50;99.90;5.30;102320.00;;;;4994447;27;93040;-70
2022/01/24 01:18:54;;;;;;;6.47;4.10;;;5.50;99.90;5.30;102311.00;;;;4991591;28;93715;-70
2022/01/24 01:21:20;;;;;;;7.53;3.67;;;5.50;99.90;5.30;102314.00;;;;4999563;27;122934;-70
2022/01/24 01:23:54;;;;;;;8.73;4.20;;;5.40;99.90;5.40;102312.00;;;;4991581;28;92869;-70
2022/01/24 01:28:54;;;;;;;7.43;4.57;;;5.50;99.90;5.40;102313.00;;;;4997555;27;93237;-71
2022/01/24 01:31:41;;;;;;;4.40;4.00;;;5.60;99.90;5.40;102324.00;;;;5011626;27;93045;-71
2022/01/24 01:34:46;;;;;;;8.77;4.17;;;5.70;99.90;5.40;102326.00;;;;5013752;27;92757;-71
2022/01/24 01:37:38;;;;;;;4.70;3.50;;;5.60;99.90;5.50;102331.00;;;;5014326;27;92008;-71
2022/01/24 01:56:05;;;;;;;6.37;4.10;;;5.60;99.90;5.50;102304.00;;;;5004025;27;100454;-71
2022/01/24 01:58:31;;;;;;;7.60;4.37;;;5.70;99.90;5.50;102316.00;;;;4993037;27;93060;-71
2022/01/24 02:00:59;;;;;;;9.30;4.67;;;5.60;99.90;5.50;102308.00;;;;4974242;28;93087;-72
2022/01/24 02:03:27;;;;;;;8.37;4.50;;;5.70;99.90;5.50;102306.00;;;;4973841;28;94023;-71
2022/01/24 02:05:53;;;;;;;9.67;4.20;;;5.70;99.90;5.50;102301.00;;;;4993177;28;93212;-70
2022/01/24 02:08:31;;;;;;;7.60;4.87;;;5.70;99.90;5.40;102305.00;;;;4992076;28;109134;-70
2022/01/24 02:10:58;;;;;;;6.63;3.80;;;5.70;99.90;5.50;102307.00;;;;4992554;28;93978;-70
2022/01/24 02:13:25;;;;;;;3.97;2.87;;;5.80;99.90;5.50;102312.00;;;;5005042;27;93744;-70
2022/01/24 02:18:51;;;;;;;6.30;4.10;;;5.60;99.90;5.50;102315.00;;;;4975492;28;93094;-71
2022/01/24 02:21:42;;;;;;;5.77;3.80;;;5.60;99.90;5.50;102308.00;;;;5001016;27;93188;-72
2022/01/24 02:24:09;;;;;;;7.27;4.10;;;5.60;99.90;5.50;102311.00;;;;4997613;27;92936;-72
2022/01/24 02:26:35;;;;;;;7.37;4.27;;;5.60;99.90;5.50;102304.00;;;;5013002;27;92978;-73
2022/01/24 02:29:18;;;;;;;6.43;4.17;;;5.70;99.90;5.50;102304.00;;;;5012607;27;95658;-73
2022/01/24 02:31:49;;;;;;;8.47;4.87;;;5.70;99.90;5.50;102289.00;;;;4996427;27;93235;-73
2022/01/24 02:34:38;;;;;;;11.60;5.33;;;5.70;99.90;5.50;102287.00;;;;4980159;28;92960;-72
2022/01/24 02:37:08;;;;;;;6.90;4.57;;;5.70;99.90;5.50;102298.00;;;;4988890;28;94201;-72
2022/01/24 02:39:53;;;;;;;8.23;4.97;;;5.60;99.90;5.50;102284.00;;;;4992827;28;92764;-72
2022/01/24 02:51:09;;;;;;;5.23;4.17;;;5.80;99.90;5.50;102290.00;;;;4992602;27;92649;-71
2022/01/24 02:53:35;;;;;;;7.93;5.10;;;5.70;99.90;5.60;102289.00;;;;5011916;27;92834;-72
2022/01/24 02:56:03;;;;;;;10.80;5.30;;;5.70;99.90;5.60;102291.00;;;;5012536;27;93825;-72
2022/01/24 02:58:29;;;;;;;8.50;4.10;;;5.80;99.90;5.60;102290.00;;;;5009921;27;92689;-72
2022/01/24 03:00:56;;;;;;;6.73;4.63;;;5.70;99.90;5.60;102281.00;;;;5011612;27;94350;-72
2022/01/24 03:03:22;;;;;;;7.70;4.33;;;5.80;99.90;5.60;102284.00;;;;4977523;28;94202;-71
2022/01/24 03:05:48;;;;;;;5.43;3.73;;;5.80;99.90;5.60;102291.00;;;;4991333;28;102647;-72
2022/01/24 03:08:14;;;;;;;8.00;4.23;;;5.80;99.90;5.60;102288.00;;;;5009055;27;92668;-72
2022/01/24 03:10:46;;;;;;;7.27;3.60;;;5.80;99.90;5.60;102292.00;;;;4992910;27;92826;-73
2022/01/24 03:15:41;;;;;;;6.13;3.83;;;5.80;99.90;5.60;102285.00;;;;4988847;28;93138;-73
2022/01/24 03:18:10;;;;;;;7.57;4.57;;;5.80;99.90;5.60;102284.00;;;;4973630;28;92849;-72
2022/01/24 03:20:37;;;;;;;4.03;3.27;;;5.80;99.90;5.60;102287.00;;;;4973856;28;92424;-72
2022/01/24 03:23:03;;;;;;;7.53;3.43;;;5.80;99.90;5.60;102288.00;;;;4991827;28;93508;-73
2022/01/24 03:25:29;;;;;;;5.70;3.70;;;5.80;99.90;5.60;102287.00;;;;5009960;27;111390;-73
2022/01/24 03:27:55;;;;;;;5.80;3.10;;;5.70;99.90;5.60;102284.00;;;;5012084;27;93669;-73
2022/01/24 03:30:23;;;;;;;9.43;4.10;;;5.70;99.90;5.60;102287.00;;;;5011130;27;97386;-73
2022/01/24 03:32:48;;;;;;;5.37;3.47;;;5.70;99.90;5.60;102291.00;;;;5010739;27;94062;-73
2022/01/24 03:35:15;;;;;;;6.43;3.33;;;5.70;99.90;5.60;102283.00;;;;5010344;27;120904;-72
2022/01/24 03:37:41;;;;;;;7.77;3.80;;;5.80;99.90;5.60;102280.00;;;;5011369;27;92905;-72
2022/01/24 03:40:07;;;;;;;8.93;3.73;;;5.70;99.90;5.60;102277.00;;;;4992208;27;108761;-74
2022/01/24 03:42:34;;;;;;;5.40;2.93;;;5.80;99.90;5.60;102281.00;;;;4996991;27;96356;-74
2022/01/24 03:45:03;;;;;;;6.50;3.17;;;5.70;99.90;5.60;102284.00;;;;4990466;28;123943;-74
2022/01/24 03:50:00;;;;;;;4.23;3.17;;;5.70;99.90;5.60;102278.00;;;;4990833;27;92776;-75
2022/01/24 03:52:26;;;;;;;5.93;3.03;;;5.80;99.90;5.60;102284.00;;;;4972083;28;95943;-75
2022/01/24 03:54:52;;;;;;;5.80;3.10;;;5.70;99.90;5.60;102284.00;;;;4974676;28;96348;-75
2022/01/24 03:57:20;;;;;;;5.27;3.93;;;5.80;99.90;5.60;102278.00;;;;4976426;28;92807;-75
2022/01/24 03:59:46;;;;;;;4.10;2.90;;;5.80;99.90;5.60;102279.00;;;;4994664;28;92578;-75
2022/01/24 04:02:13;;;;;;;6.10;4.00;;;5.70;99.90;5.60;102283.00;;;;4977395;28;110394;-76
2022/01/24 04:04:39;;;;;;;5.00;3.10;;;5.70;99.90;5.60;102277.00;;;;4987510;27;93366;-76
2022/01/24 04:07:06;;;;;;;3.37;2.97;;;5.80;99.90;5.60;102276.00;;;;4995468;27;92999;-76
2022/01/24 04:09:33;;;;;;;6.40;3.53;;;5.80;99.90;5.60;102279.00;;;;5008414;27;92245;-74
2022/01/24 04:11:59;;;;;;;3.77;2.80;;;5.80;99.90;5.60;102277.00;;;;4994689;27;93356;-73
2022/01/24 04:14:33;;;;;;;7.37;3.43;;;5.70;99.90;5.60;102281.00;;;;4996466;27;93255;-74
2022/01/24 04:22:28;;;;;;;6.77;3.63;;;5.80;99.90;5.60;102284.00;;;;4973330;28;92801;-75
2022/01/24 04:25:02;;;;;;;6.97;2.87;;;5.80;99.90;5.60;102274.00;;;;4993867;27;92979;-74
2022/01/24 04:27:29;;;;;;;4.90;3.60;;;5.80;99.90;5.60;102278.00;;;;4959952;28;92829;-74
2022/01/24 04:29:56;;;;;;;9.93;3.77;;;5.80;99.90;5.70;102280.00;;;;4983047;28;93016;-74
2022/01/24 04:32:23;;;;;;;6.10;3.30;;;5.80;99.90;5.70;102284.00;;;;4994412;28;93144;-74
2022/01/24 04:34:50;;;;;;;4.97;3.50;;;5.80;99.90;5.70;102284.00;;;;4993927;28;107525;-73
2022/01/24 04:37:16;;;;;;;4.13;2.80;;;5.90;99.90;5.70;102294.00;;;;4994185;27;95161;-74
2022/01/24 04:39:45;;;;;;;7.33;3.73;;;5.80;99.90;5.70;102283.00;;;;5014289;27;92829;-73
2022/01/24 04:42:20;;;;;;;6.80;3.20;;;5.90;99.90;5.70;102302.00;;;;5013519;27;94533;-74
2022/01/24 04:50:18;;;;;;;6.10;3.87;;;5.90;99.90;5.70;102291.00;;;;5011515;27;92884;-74
2022/01/24 04:51:09;;;;;;;5.57;3.37;;;5.90;99.90;5.70;102296.00;;;;4998339;27;93022;-73
2022/01/24 04:53:12;;;;;;;4.83;2.93;;;5.90;99.90;5.70;102296.00;;;;4983851;27;93013;-73
2022/01/24 04:55:38;;;;;;;7.83;4.10;;;5.80;99.90;5.70;102289.00;;;;4993486;28;92823;-73
2022/01/24 04:58:04;;;;;;;7.13;3.77;;;5.90;99.90;5.70;102292.00;;;;4993867;28;92991;-73
2022/01/24 05:00:30;;;;;;;4.80;2.80;;;5.90;99.90;5.70;102286.00;;;;4992996;28;107430;-73
2022/01/24 05:02:55;;;;;;;6.93;3.67;;;5.90;99.90;5.70;102299.00;;;;4993300;27;93821;-74
2022/01/24 05:05:22;;;;;;;6.33;3.33;;;5.90;99.90;5.70;102285.00;;;;4992198;27;122344;-73
2022/01/24 05:07:50;;;;;;;9.10;3.97;;;5.80;99.90;5.70;102299.00;;;;5012886;27;93933;-74
2022/01/24 05:10:27;;;;;;;9.90;4.60;;;5.90;99.90;5.70;102296.00;;;;5014054;27;92953;-74
2022/01/24 05:23:36;;;;;;;7.70;4.53;;;5.80;99.90;5.60;102305.00;;;;5010989;27;93153;-72
2022/01/24 05:26:06;;;;;;;6.33;2.70;;;5.70;99.90;5.60;102308.00;;;;5011344;27;94771;-73
2022/01/24 05:28:35;;;;;;;5.07;4.03;;;5.70;99.90;5.60;102321.00;;;;5013410;27;92952;-73
2022/01/24 05:31:01;;;;;;;4.80;3.63;;;5.70;99.90;5.60;102313.00;;;;4994421;27;93012;-72
2022/01/24 05:33:29;;;;;;;12.10;3.47;;;5.70;99.90;5.60;102315.00;;;;4992461;27;94115;-72
2022/01/24 05:35:55;;;;;;;8.90;4.17;;;5.70;99.90;5.60;102314.00;;;;4993252;28;95043;-73
2022/01/24 05:38:24;;;;;;;7.13;3.73;;;5.70;99.90;5.60;102324.00;;;;4992870;27;92682;-73
2022/01/24 05:40:50;;;;;;;7.30;4.07;;;5.80;99.90;5.60;102318.00;;;;4992174;27;92970;-73
2022/01/24 05:43:16;;;;;;;10.30;5.00;;;5.80;99.90;5.60;102321.00;;;;5009572;27;92900;-73
2022/01/24 05:45:42;;;;;;;8.00;5.07;;;5.80;99.90;5.70;102328.00;;;;4973022;28;123003;-72
2022/01/24 05:48:08;;;;;;;9.27;5.03;;;5.80;99.90;5.70;102330.00;;;;5005745;27;92987;-73
2022/01/24 05:50:34;;;;;;;7.87;4.00;;;5.80;99.90;5.70;102324.00;;;;4974015;28;92067;-73
2022/01/24 05:53:00;;;;;;;7.43;4.50;;;5.80;99.90;5.70;102327.00;;;;4988479;27;98845;-73
2022/01/24 05:55:26;;;;;;;8.33;3.97;;;5.80;99.90;5.70;102329.00;;;;5011963;27;120956;-73
2022/01/24 05:57:54;;;;;;;5.77;3.37;;;7.00;99.90;5.70;102321.00;;;;5011567;27;109073;-73
2022/01/24 06:00:22;;;;;;;5.53;3.37;;;5.90;99.90;5.70;102321.00;;;;5013510;27;92906;-73
2022/01/24 06:02:48;;;;;;;4.33;2.93;;;5.80;99.90;5.60;102329.00;;;;4998994;27;95538;-73
2022/01/24 06:05:14;;;;;;;5.43;3.13;;;5.80;99.90;5.60;102336.00;;;;4991643;28;120423;-73
2022/01/24 06:07:40;;;;;;;4.23;2.97;;;5.80;99.90;5.60;102331.00;;;;4991779;28;109420;-72
2022/01/24 06:10:07;;;;;;;5.07;3.53;;;5.80;99.90;5.60;102329.00;;;;4983067;28;108028;-71
2022/01/24 06:12:33;;;;;;;3.90;2.97;;;5.90;99.90;5.60;102330.00;;;;4992853;27;111209;-72
2022/01/24 06:14:59;;;;;;;7.37;3.30;;;5.80;99.90;5.60;102322.00;;;;4974312;28;94396;-72
2022/01/24 06:17:24;;;;;;;6.43;3.40;;;5.80;99.90;5.60;102330.00;;;;4991828;27;93083;-72
2022/01/24 06:19:50;;;;;;;4.17;2.70;;;5.70;99.90;5.60;102332.00;;;;5002332;27;100610;-73
2022/01/24 06:22:16;;;;;;;5.10;3.20;;;5.80;99.90;5.60;102323.00;;;;4992254;27;120361;-73
2022/01/24 06:24:41;;;;;;;4.93;3.03;;;5.80;99.90;5.60;102335.00;;;;4983296;28;117144;-73
2022/01/24 06:27:07;;;;;;;6.47;3.67;;;5.80;99.90;5.60;102328.00;;;;4973637;28;110933;-73
2022/01/24 06:29:33;;;;;;;4.30;3.07;;;5.70;99.90;5.60;102325.00;;;;4996896;27;92870;-73
2022/01/24 06:31:58;;;;;;;5.63;3.50;;;5.70;99.90;5.50;102331.00;;;;5011783;27;103232;-72
2022/01/24 06:34:24;;;;;;;5.47;2.87;;;5.60;99.90;5.50;102324.00;;;;5010519;27;121513;-73
2022/01/24 06:36:50;;;;;;;6.83;3.47;;;5.70;99.90;5.50;102322.00;;;;5011816;27;110220;-72
2022/01/24 06:39:15;;;;;;;6.27;3.00;;;5.70;99.90;5.50;102332.00;;;;5010595;27;96295;-72
2022/01/24 06:41:43;;;;;;;7.27;3.17;;;5.60;99.90;5.50;102329.00;;;;5012019;27;96662;-72
2022/01/24 06:44:09;;;;;;;5.27;3.07;;;5.70;99.90;5.50;102333.00;;;;5011540;27;93153;-72
2022/01/24 06:46:35;;;;;;;4.83;2.87;;;5.70;99.90;5.50;102336.00;;;;5011072;27;109533;-71
2022/01/24 06:49:01;;;;;;;6.97;2.33;;;5.60;99.90;5.40;102333.00;;;;5011065;27;108718;-72
2022/01/24 06:51:27;;;;;;;3.70;2.67;;;5.60;99.90;5.50;102334.00;;;;5012367;27;93414;-72
2022/01/24 06:53:53;;;;;;;3.60;2.30;;;5.70;99.90;5.40;102341.00;;;;5009636;27;123408;-72
2022/01/24 06:56:19;;;;;;;5.40;2.20;;;5.60;99.90;5.40;102338.00;;;;4999042;27;92899;-72
2022/01/24 06:58:45;;;;;;;2.47;1.73;;;5.60;99.90;5.40;102343.00;;;;5002243;27;92702;-72
2022/01/24 07:01:11;;;;;;;3.97;2.53;;;5.60;99.90;5.40;102347.00;;;;5011867;27;94253;-72
2022/01/24 07:03:37;;;;;;;4.00;2.83;;;5.60;99.90;5.40;102349.00;;;;5010063;27;93522;-72
2022/01/24 07:06:03;;;;;;;4.00;2.23;;;5.60;99.90;5.40;102359.00;;;;5011510;27;107106;-71
2022/01/24 07:08:29;;;;;;;5.13;2.73;;;5.60;99.90;5.40;102362.00;;;;5008968;27;108497;-71
2022/01/24 07:10:54;;;;;;;3.43;2.33;;;5.60;99.90;5.50;102366.00;;;;4989344;27;123352;-72
2022/01/24 07:13:21;;;;;;;4.50;1.80;;;5.70;99.90;5.50;102365.00;;;;5010812;27;123278;-71
2022/01/24 07:15:52;;;;;;;2.70;2.00;;;5.70;99.90;5.50;102354.00;;;;4994275;27;92816;-72
2022/01/24 07:20:53;;;;;;;3.50;1.67;;;5.70;99.90;5.50;102358.00;;;;5007302;27;93150;-71
2022/01/24 07:23:19;;;;;;;4.63;2.40;;;5.70;99.90;5.50;102368.00;;;;5010355;27;92882;-71
2022/01/24 07:25:45;;;;;;;3.77;2.40;;;5.70;99.90;5.50;102368.00;;;;4991118;27;111590;-71
2022/01/24 07:28:12;;;;;;;5.20;2.63;;;5.70;99.90;5.50;102362.00;;;;4990975;27;108793;-72
2022/01/24 07:30:38;;;;;;;2.90;2.40;;;5.70;99.90;5.50;102366.00;;;;4989671;28;97496;-74
2022/01/24 07:33:04;;;;;;;5.13;2.63;;;5.70;99.90;5.60;102362.00;;;;4993758;27;122951;-71
2022/01/24 07:35:30;;;;;;;5.20;3.00;;;5.70;99.90;5.60;102363.00;;;;4995175;27;94182;-71
2022/01/24 07:37:56;;;;;;;5.93;3.03;;;5.70;99.90;5.60;102378.00;;;;4995093;28;93321;-72
2022/01/24 07:40:22;;;;;;;4.90;3.47;;;5.70;99.90;5.60;102370.00;;;;4993752;27;122642;-73
2022/01/24 07:45:47;;;;;;;4.93;3.17;;;5.80;99.90;5.60;102390.00;;;;4985049;28;92952;-73
2022/01/24 07:48:14;;;;;;;4.20;2.60;;;5.90;99.90;5.60;102385.00;;;;4994398;27;92936;-73
2022/01/24 07:50:44;;;;;;;4.27;2.23;;;5.70;99.90;5.60;102381.00;;;;4994277;27;111155;-73
2022/01/24 07:53:12;;;;;;;4.37;2.20;;;5.80;99.90;5.70;102388.00;;;;4996332;27;93398;-73
2022/01/24 07:55:38;;;;;;;4.37;3.07;;;5.70;99.90;5.70;102376.00;;;;4976061;28;92916;-74
2022/01/24 07:58:05;;;;;;;4.73;2.83;;;5.80;99.90;5.70;102375.00;;;;4994531;28;92797;-73
2022/01/24 08:00:32;;;;;;;3.40;2.80;;;5.80;99.90;5.70;102385.00;;;;4958248;28;96215;-73
2022/01/24 08:02:58;;;;;;;3.50;2.57;;;5.90;99.90;5.70;102385.00;;;;4993997;28;94685;-73
2022/01/24 08:05:25;;;;;;;5.87;3.10;;;5.90;99.90;5.80;102390.00;;;;4994395;27;92844;-72
2022/01/24 08:07:51;;;;;;;4.90;2.80;;;5.90;99.90;5.80;102391.00;;;;4994855;28;92976;-73
2022/01/24 08:10:17;;;;;;;6.63;2.83;;;6.00;99.90;5.80;102378.00;;;;4985289;27;93441;-73
2022/01/24 08:12:44;;;;;;;5.23;2.73;;;6.00;99.90;5.90;102395.00;;;;5002413;27;102953;-74
2022/01/24 08:15:17;;;;;;;3.60;2.63;;;6.00;99.90;5.90;102393.00;;;;5002846;27;92951;-73
2022/01/24 08:17:44;;;;;;;5.57;2.73;;;6.00;99.90;5.90;102400.00;;;;4976710;28;92174;-73
2022/01/24 08:20:12;;;;;;;4.27;2.23;;;6.00;99.90;5.90;102400.00;;;;4975268;28;93249;-74
2022/01/24 08:22:39;;;;;;;6.97;2.73;;;6.10;99.90;5.90;102396.00;;;;4993893;28;93059;-73
2022/01/24 08:25:06;;;;;;;2.93;2.27;;;6.10;99.90;5.90;102400.00;;;;5011419;27;93901;-73
2022/01/24 08:27:33;;;;;;;4.87;2.53;;;6.10;99.90;5.90;102404.00;;;;5014656;27;92886;-73
2022/01/24 08:29:59;;;;;;;5.80;3.27;;;6.10;99.90;6.00;102398.00;;;;5013595;27;93904;-74
2022/01/24 08:32:25;;;;;;;6.03;3.17;;;6.10;99.90;6.00;102397.00;;;;4989930;28;93893;-73
2022/01/24 08:34:51;;;;;;;4.50;3.07;;;6.10;99.90;6.00;102393.00;;;;5004152;27;110521;-73
2022/01/24 08:37:17;;;;;;;5.83;3.30;;;6.20;99.90;6.00;102390.00;;;;5014239;27;92838;-74
2022/01/24 08:39:44;;;;;;;5.57;3.43;;;6.20;99.90;6.10;102392.00;;;;5012129;27;122917;-74
2022/01/24 08:47:05;;;;;;;6.40;2.73;;;6.30;99.90;6.20;102397.00;;;;4973966;28;92717;-73
2022/01/24 08:49:32;;;;;;;6.00;3.03;;;6.30;99.90;6.20;102396.00;;;;5007753;27;94185;-73
2022/01/24 08:52:01;;;;;;;4.57;2.23;;;6.00;99.90;6.30;102403.00;;;;5013254;27;113030;-73
2022/01/24 08:54:27;;;;;;;5.47;3.00;;;6.40;99.90;6.30;102389.00;;;;5013546;27;93015;-73
2022/01/24 08:56:53;;;;;;;4.87;2.70;;;6.40;99.90;6.30;102399.00;;;;4991984;28;96747;-73
2022/01/24 08:59:21;;;;;;;5.40;2.67;;;6.40;99.90;6.30;102399.00;;;;4975054;28;110713;-73
2022/01/24 09:01:47;;;;;;;6.07;2.60;;;6.50;99.90;6.40;102395.00;;;;4993377;28;93074;-73
2022/01/24 09:04:13;;;;;;;4.47;2.67;;;6.50;99.90;6.50;102397.00;;;;4993457;27;92857;-74
2022/01/24 09:06:39;;;;;;;4.30;1.73;;;6.50;99.90;6.50;102392.00;;;;4993588;28;108853;-73
2022/01/24 09:09:05;;;;;;;3.77;2.23;;;6.60;99.90;6.50;102395.00;;;;4975007;28;93412;-72
2022/01/24 09:11:36;;;;;;;4.10;2.37;;;6.60;99.90;6.50;102398.00;;;;4979658;28;92969;-73
2022/01/24 09:14:05;;;;;;;4.63;2.77;;;6.60;99.90;6.50;102400.00;;;;4990497;28;93742;-73
2022/01/24 09:16:30;;;;;;;2.60;2.00;;;6.70;99.90;6.60;102400.00;;;;4974760;28;92892;-73
2022/01/24 09:18:56;;;;;;;5.37;2.13;;;6.70;99.90;6.60;102408.00;;;;4992658;27;110524;-73
2022/01/24 09:21:23;;;;;;;3.20;2.20;;;6.80;99.90;6.70;102399.00;;;;4993056;28;94547;-73
2022/01/24 09:23:49;;;;;;;2.50;2.00;;;6.80;99.90;6.70;102390.00;;;;4992973;27;93123;-72
2022/01/24 09:26:15;;;;;;;3.30;2.47;;;6.90;99.90;6.80;102393.00;;;;4992902;28;108507;-72
2022/01/24 09:28:41;;;;;;;3.20;2.07;;;6.90;99.90;6.90;102402.00;;;;4992977;27;93899;-73
2022/01/24 09:31:07;;;;;;;3.43;2.20;;;7.10;99.90;7.00;102388.00;;;;4990210;28;121829;-73
2022/01/24 09:33:33;;;;;;;3.70;2.27;;;7.10;99.90;7.10;102396.00;;;;5011730;27;109601;-73
2022/01/24 09:36:00;;;;;;;3.40;1.77;;;7.20;99.90;7.10;102383.00;;;;4974996;28;93136;-73
2022/01/24 09:38:30;;;;;;;4.50;1.90;;;7.20;99.90;7.20;102393.00;;;;4991597;28;95077;-73
2022/01/24 09:40:57;;;;;;;2.63;1.90;;;7.30;99.90;7.30;102398.00;;;;4998402;27;93723;-73
2022/01/24 09:43:23;;;;;;;2.43;1.40;;;7.40;99.90;7.30;102399.00;;;;5012856;27;94694;-72
2022/01/24 09:45:49;;;;;;;3.53;1.93;;;7.40;99.90;7.30;102382.00;;;;4994303;27;108883;-73
2022/01/24 09:48:16;;;;;;;3.73;1.93;;;7.50;99.90;7.40;102383.00;;;;4992296;27;106404;-73
2022/01/24 09:50:45;;;;;;;3.47;1.87;;;7.50;99.90;7.30;102378.00;;;;4993955;27;93528;-73
2022/01/24 09:53:14;;;;;;;1.43;1.20;;;7.50;99.90;7.40;102389.00;;;;4992586;28;92663;-73
2022/01/24 09:55:39;;;;;;;1.27;1.17;;;7.40;99.90;7.40;102386.00;;;;4974670;28;104935;-73
2022/01/24 09:58:05;;;;;;;2.30;1.67;;;7.50;99.90;7.40;102391.00;;;;4992872;27;122076;-73
2022/01/24 10:00:32;;;;;;;1.97;1.53;;;7.50;99.90;7.40;102396.00;;;;4991591;28;122731;-73
2022/01/24 10:02:59;;;;;;;3.10;1.83;;;7.50;99.90;7.40;102394.00;;;;4991668;28;96399;-73
2022/01/24 10:05:37;;;;;;;1.73;1.17;;;7.50;99.90;7.40;102383.00;;;;4986107;28;92946;-75
2022/01/24 10:08:12;;;;;;;2.53;1.10;;;7.50;99.90;7.40;102393.00;;;;4975287;28;93430;-75
2022/01/24 10:10:54;;;;;;;1.73;1.63;;;7.50;99.90;7.30;102394.00;;;;4962524;27;93845;-75
2022/01/24 10:16:26;;;;;;;2.53;0.90;;;7.50;99.90;7.30;102391.00;;;;4988602;27;92841;-75
2022/01/24 10:19:06;;;;;;;0.93;0.87;;;7.40;99.90;7.30;102389.00;;;;5010459;27;93390;-74
2022/01/24 10:21:46;;;;;;;1.03;0.73;;;7.70;99.90;7.30;102376.00;;;;4991676;27;93216;-75
2022/01/24 10:24:29;;;;;;;1.67;1.10;;;7.40;99.90;7.30;102370.00;;;;5005559;27;93092;-74
2022/01/24 10:27:27;;;;;;;1.63;1.13;;;7.50;99.90;7.30;102388.00;;;;4991344;28;92825;-74
2022/01/24 10:30:08;;;;;;;2.40;1.00;;;7.40;99.90;7.40;102377.00;;;;4952168;28;94010;-74
2022/01/24 10:32:43;;;;;;;1.30;1.10;;;7.50;99.90;7.40;102367.00;;;;4972788;28;93898;-75
2022/01/24 10:35:37;;;;;;;1.97;1.37;;;7.50;99.90;7.40;102369.00;;;;4991349;27;93055;-75
2022/01/24 10:41:21;;;;;;;2.40;1.47;;;7.60;99.90;7.50;102372.00;;;;4969109;28;93059;-75
2022/01/24 10:43:49;;;;;;;2.67;1.80;;;7.60;99.90;7.60;102378.00;;;;4972121;28;92723;-76
2022/01/24 10:46:24;;;;;;;1.40;1.27;;;7.70;99.90;7.60;102372.00;;;;4990285;27;93926;-77
2022/01/24 10:49:03;;;;;;;2.70;1.37;;;7.70;99.90;7.70;102372.00;;;;4955299;27;92785;-77
2022/01/24 10:51:38;;;;;;;3.47;2.20;;;7.70;99.90;7.70;102371.00;;;;4971081;28;96015;-77
2022/01/24 10:54:03;;;;;;;1.60;1.20;;;7.80;99.90;7.70;102372.00;;;;4971366;28;92880;-75
2022/01/24 10:56:41;;;;;;;4.67;2.43;;;7.80;99.90;7.70;102376.00;;;;4971147;28;93821;-76
2022/01/24 10:59:22;;;;;;;2.63;1.63;;;7.40;99.90;7.70;102365.00;;;;4971862;28;92821;-76
2022/01/24 11:01:57;;;;;;;4.30;1.90;;;7.90;99.90;7.80;102363.00;;;;4981425;28;93489;-75
2022/01/24 11:04:26;;;;;;;0.97;0.97;;;7.90;99.90;7.70;102370.00;;;;4980660;28;93205;-75
2022/01/24 11:06:59;;;;;;;2.37;1.43;;;7.90;99.90;7.80;102363.00;;;;4989295;27;92666;-75
2022/01/24 11:09:31;;;;;;;1.60;1.27;;;7.90;99.90;7.80;102365.00;;;;4982757;28;92827;-75
2022/01/24 11:12:01;;;;;;;1.47;1.13;;;7.90;99.90;7.70;102365.00;;;;4972358;27;100372;-74
2022/01/24 11:14:29;;;;;;;1.70;1.13;;;7.90;99.90;7.70;102352.00;;;;5009739;27;93815;-74
2022/01/24 11:16:58;;;;;;;1.77;1.27;;;7.90;99.90;7.70;102347.00;;;;4972660;27;1113734;-74
2022/01/24 11:19:40;;;;;;;2.30;1.10;;;7.90;99.90;7.70;102350.00;;;;5008068;27;92737;-74
2022/01/24 11:22:19;;;;;;;2.80;1.27;;;7.90;99.90;7.80;102348.00;;;;4973713;28;96589;-73
2022/01/24 11:24:56;;;;;;;1.53;0.90;;;7.90;99.90;7.80;102343.00;;;;4991790;27;94070;-73
2022/01/24 11:27:23;;;;;;;1.93;0.80;;;7.90;99.90;7.80;102339.00;;;;4973500;28;92716;-73
2022/01/24 11:29:57;;;;;;;0.73;0.73;;;7.90;99.90;7.80;102339.00;;;;5001209;27;94887;-73
2022/01/24 11:32:38;;;;;;;1.83;1.07;;;7.90;99.90;7.80;102336.00;;;;5003389;27;92836;-73
2022/01/24 11:35:06;;;;;;;2.37;1.00;;;7.90;99.90;7.90;102335.00;;;;4973047;27;93902;-73
2022/01/24 11:37:42;;;;;;;1.53;1.33;;;8.00;99.90;7.90;102327.00;;;;4975433;27;93146;-72
2022/01/24 11:40:23;;;;;;;2.23;1.10;;;8.00;99.90;7.90;102327.00;;;;4959234;28;91884;-72
2022/01/24 11:42:50;;;;;;;3.70;0.90;;;8.00;99.90;8.00;102330.00;;;;4972396;28;92772;-72
2022/01/24 11:45:32;;;;;;;1.70;1.10;;;8.10;99.90;8.10;102331.00;;;;4990828;28;93563;-73
2022/01/24 11:48:16;;;;;;;1.20;0.80;;;8.10;99.90;8.10;102325.00;;;;4984626;27;94055;-71
2022/01/24 11:50:42;;;;;;;1.97;1.67;;;8.20;99.90;8.10;102333.00;;;;4973348;28;93431;-72
2022/01/24 11:53:28;;;;;;;0.90;0.80;;;8.20;99.90;8.20;102330.00;;;;4965338;27;94550;-72
2022/01/24 11:55:55;;;;;;;2.10;1.30;;;8.20;99.90;8.30;102328.00;;;;5011402;27;92876;-72
2022/01/24 11:58:32;;;;;;;1.33;0.83;;;8.30;99.90;8.30;102324.00;;;;4993192;27;92845;-71
2022/01/24 12:01:03;;;;;;;0.50;0.50;;;8.40;99.90;8.30;102325.00;;;;4989418;28;92907;-71
2022/01/24 12:03:30;;;;;;;0.60;0.60;;;8.40;99.90;8.40;102328.00;;;;4991195;28;93347;-72
2022/01/24 12:06:08;;;;;;;1.20;0.73;;;8.40;99.90;8.30;102333.00;;;;4991595;28;92757;-72
2022/01/24 12:08:41;;;;;;;0.63;0.63;;;8.50;99.90;8.30;102330.00;;;;4990690;27;93021;-71
2022/01/24 12:11:22;;;;;;;0.50;0.50;;;8.40;99.90;8.30;102318.00;;;;4991751;27;92745;-71
2022/01/24 12:13:53;;;;;;;0.77;0.50;;;8.40;99.90;8.30;102316.00;;;;4988215;27;94144;-70
2022/01/24 12:16:36;;;;;;;1.57;0.70;;;8.50;99.90;8.40;102320.00;;;;4993482;28;94138;-71
2022/01/24 12:19:05;;;;;;;0.67;0.40;;;8.40;99.90;8.50;102301.00;;;;4967317;28;92824;-71
2022/01/24 12:21:34;;;;;;;0.53;0.50;;;8.50;99.90;8.60;102315.00;;;;4994046;28;92721;-71
2022/01/24 12:24:09;;;;;;;0.90;0.50;;;8.60;99.90;8.60;102307.00;;;;4988436;28;93081;-70
2022/01/24 12:26:47;;;;;;;0.87;0.33;;;8.70;99.90;8.70;102309.00;;;;5006110;27;93020;-71
2022/01/24 12:29:27;;;;;;;0.40;0.40;;;8.80;99.90;8.70;102302.00;;;;4991772;28;93017;-72
2022/01/24 12:31:59;;;;;;;0.70;0.30;;;8.80;99.90;8.70;102309.00;;;;4977148;28;92232;-71
2022/01/24 12:34:40;;;;;;;0.60;0.60;;;8.80;99.90;8.80;102302.00;;;;4994322;28;93353;-72
2022/01/24 12:37:29;;;;;;;0.63;0.60;;;8.80;99.90;8.90;102308.00;;;;4977176;28;93392;-71
2022/01/24 12:40:06;;;;;;;0.80;0.80;;;8.90;99.90;9.00;102303.00;;;;4993858;27;93775;-70
2022/01/24 12:42:46;;;;;;;1.80;1.10;;;9.00;99.90;9.00;102301.00;;;;4976318;28;92948;-70
2022/01/24 12:46:19;;;;;;;3.13;2.03;;;9.10;99.90;9.10;102305.00;;;;4976623;28;92841;-71
2022/01/24 12:48:19;;;;;;;1.57;1.20;;;9.20;99.90;9.30;102297.00;;;;4979343;28;93081;-71
2022/01/24 12:50:49;;;;;;;6.23;2.77;;;9.30;99.90;9.40;102297.00;;;;5012120;27;92802;-71
2022/01/24 12:53:16;;;;;;;3.03;1.17;;;9.40;99.90;9.50;102307.00;;;;5014887;27;92948;-72